createdAt,value
2023-01-19T00:00:39.969Z,8.40
2023-01-19T00:03:28.495Z,8.00
2023-01-19T00:06:05.442Z,8.10
2023-01-19T00:08:38.837Z,8.20
2023-01-19T00:11:17.795Z,8.10
2023-01-19T00:13:50.332Z,8.00
2023-01-19T00:16:24.875Z,8.20
2023-01-19T00:18:58.105Z,8.50
2023-01-19T00:21:30.887Z,7.80
2023-01-19T00:24:04.275Z,7.90
2023-01-19T00:26:34.556Z,7.90
2023-01-19T00:29:06.522Z,7.80
2023-01-19T00:31:37.289Z,8.10
2023-01-19T00:34:11.527Z,7.90
2023-01-19T00:36:42.218Z,7.80
2023-01-19T00:39:12.593Z,8.20
2023-01-19T00:42:00.885Z,7.70
2023-01-19T00:44:32.852Z,7.80
2023-01-19T00:47:04.557Z,8.00
2023-01-19T00:49:35.196Z,7.60
2023-01-19T00:52:10.582Z,8.10
2023-01-19T00:54:45.829Z,7.70
2023-01-19T00:57:19.324Z,7.80
2023-01-19T00:59:52.113Z,7.50
2023-01-19T01:02:27.579Z,8.20
2023-01-19T01:05:02.782Z,8.20
2023-01-19T01:07:34.507Z,8.30
2023-01-19T01:10:08.520Z,8.00
2023-01-19T01:12:38.954Z,8.20
2023-01-19T01:15:15.337Z,7.80
2023-01-19T01:17:48.557Z,7.70
2023-01-19T01:20:21.274Z,8.30
2023-01-19T01:22:56.571Z,8.20
2023-01-19T01:25:30.553Z,7.80
2023-01-19T01:28:03.182Z,8.00
2023-01-19T01:30:39.701Z,7.80
2023-01-19T01:33:10.958Z,8.30
2023-01-19T01:35:41.431Z,8.00
2023-01-19T01:38:11.452Z,7.70
2023-01-19T01:40:43.428Z,7.80
2023-01-19T01:45:54.597Z,7.90
2023-01-19T01:48:30.322Z,7.80
2023-01-19T01:51:24.436Z,8.60
2023-01-19T01:54:16.953Z,8.10
2023-01-19T01:56:51.810Z,8.60
2023-01-19T01:59:26.496Z,8.00
2023-01-19T02:02:19.835Z,8.40
2023-01-19T02:04:58.562Z,7.90
2023-01-19T02:07:56.259Z,7.90
2023-01-19T02:10:47.979Z,8.10
2023-01-19T02:13:21.999Z,7.40
2023-01-19T02:15:57.904Z,8.20
2023-01-19T02:18:31.039Z,8.00
2023-01-19T02:21:11.193Z,8.00
2023-01-19T02:23:45.423Z,8.30
2023-01-19T02:26:20.807Z,8.00
2023-01-19T02:28:56.913Z,8.50
2023-01-19T02:31:30.470Z,8.20
2023-01-19T02:34:04.596Z,8.10
2023-01-19T02:36:53.768Z,8.30
2023-01-19T02:39:33.736Z,8.50
2023-01-19T02:42:08.383Z,8.50
2023-01-19T02:44:40.454Z,7.80
2023-01-19T02:47:14.033Z,8.30
2023-01-19T02:49:45.561Z,7.80
2023-01-19T02:52:21.595Z,7.70
2023-01-19T02:55:07.949Z,7.90
2023-01-19T02:57:56.282Z,8.10
2023-01-19T03:00:39.501Z,7.70
2023-01-19T03:03:28.661Z,8.00
2023-01-19T03:06:07.381Z,8.10
2023-01-19T03:08:50.200Z,8.00
2023-01-19T03:11:21.444Z,8.20
2023-01-19T03:13:55.038Z,8.10
2023-01-19T03:16:32.911Z,8.10
2023-01-19T03:19:10.903Z,7.70
2023-01-19T03:21:45.377Z,7.90
2023-01-19T03:24:18.871Z,8.00
2023-01-19T03:26:59.281Z,8.10
2023-01-19T03:29:36.509Z,7.80
2023-01-19T03:32:16.159Z,8.00
2023-01-19T03:34:49.051Z,7.50
2023-01-19T03:37:21.471Z,7.80
2023-01-19T03:39:54.823Z,7.50
2023-01-19T03:42:29.803Z,8.20
2023-01-19T03:45:02.793Z,7.90
2023-01-19T03:47:33.626Z,8.00
2023-01-19T03:50:14.089Z,8.10
2023-01-19T03:52:49.491Z,7.80
2023-01-19T03:55:26.517Z,7.80
2023-01-19T03:57:56.591Z,7.80
2023-01-19T04:00:27.079Z,7.80
2023-01-19T04:02:57.373Z,8.30
2023-01-19T04:05:32.895Z,7.80
2023-01-19T04:08:03.069Z,7.60
2023-01-19T04:10:35.605Z,7.70
2023-01-19T04:13:07.006Z,8.10
2023-01-19T04:15:40.209Z,7.40
2023-01-19T04:18:11.297Z,8.00
2023-01-19T04:20:41.371Z,7.80
2023-01-19T04:23:11.905Z,8.20
2023-01-19T04:25:42.017Z,8.30
2023-01-19T04:28:12.661Z,7.90
2023-01-19T04:30:47.648Z,7.70
2023-01-19T04:33:17.820Z,7.80
2023-01-19T04:35:54.614Z,7.80
2023-01-19T04:38:27.793Z,7.90
2023-01-19T04:40:57.860Z,7.70
2023-01-19T04:43:30.696Z,7.70
2023-01-19T04:46:03.395Z,8.30
2023-01-19T04:48:40.597Z,8.10
2023-01-19T04:51:14.062Z,7.70
2023-01-19T04:53:49.205Z,7.80
2023-01-19T04:56:21.339Z,7.70
2023-01-19T04:58:51.856Z,8.00
2023-01-19T05:01:22.865Z,8.00
2023-01-19T05:03:54.765Z,7.50
2023-01-19T05:06:25.183Z,7.70
2023-01-19T05:08:56.851Z,7.30
2023-01-19T05:11:27.332Z,8.30
2023-01-19T05:13:59.861Z,7.80
2023-01-19T05:16:34.379Z,8.00
2023-01-19T05:19:05.231Z,8.20
2023-01-19T05:21:37.449Z,7.70
2023-01-19T05:24:09.720Z,7.40
2023-01-19T05:26:44.809Z,8.00
2023-01-19T05:29:18.135Z,7.40
2023-01-19T05:31:49.251Z,7.60
2023-01-19T05:34:21.987Z,7.70
2023-01-19T05:36:54.974Z,7.70
2023-01-19T05:39:26.433Z,7.60
2023-01-19T05:41:56.762Z,7.80
2023-01-19T05:44:27.294Z,7.50
2023-01-19T05:46:58.339Z,7.70
2023-01-19T05:49:31.266Z,7.40
2023-01-19T05:52:01.239Z,7.60
2023-01-19T05:54:31.519Z,7.50
2023-01-19T05:57:02.827Z,7.70
2023-01-19T05:59:33.724Z,7.50
2023-01-19T06:02:04.161Z,7.90
2023-01-19T06:04:36.542Z,7.90
2023-01-19T06:07:07.378Z,7.60
2023-01-19T06:09:39.785Z,7.70
2023-01-19T06:12:14.414Z,7.40
2023-01-19T06:14:45.052Z,8.00
2023-01-19T06:17:19.869Z,7.50
2023-01-19T06:19:57.593Z,7.60
2023-01-19T06:22:30.723Z,7.60
2023-01-19T06:25:05.384Z,7.60
2023-01-19T06:27:39.257Z,7.50
2023-01-19T06:30:13.722Z,7.70
2023-01-19T06:32:43.962Z,7.60
2023-01-19T06:35:14.656Z,7.00
2023-01-19T06:37:46.155Z,7.30
2023-01-19T06:40:17.323Z,7.00
2023-01-19T06:42:49.982Z,7.50
2023-01-19T06:45:21.063Z,7.10
2023-01-19T06:47:52.082Z,7.80
2023-01-19T06:50:25.115Z,7.20
2023-01-19T06:53:00.643Z,7.70
2023-01-19T06:55:31.044Z,7.00
2023-01-19T06:58:04.042Z,7.10
2023-01-19T07:00:34.771Z,7.00
2023-01-19T07:03:07.416Z,7.10
2023-01-19T07:05:40.289Z,7.10
2023-01-19T07:08:10.484Z,7.00
2023-01-19T07:11:25.347Z,7.10
2023-01-19T07:13:33.229Z,6.90
2023-01-19T07:16:08.773Z,7.20
2023-01-19T07:18:40.176Z,6.90
2023-01-19T07:21:15.930Z,7.10
2023-01-19T07:23:49.143Z,6.90
2023-01-19T07:26:21.229Z,7.00
2023-01-19T07:28:55.268Z,7.20
2023-01-19T07:31:25.856Z,6.50
2023-01-19T07:33:59.801Z,6.70
2023-01-19T07:36:32.796Z,7.00
2023-01-19T07:39:09.547Z,6.90
2023-01-19T07:41:49.729Z,7.20
2023-01-19T07:44:20.407Z,7.00
2023-01-19T07:46:53.501Z,6.90
2023-01-19T07:49:31.403Z,7.30
2023-01-19T07:52:03.737Z,7.10
2023-01-19T07:54:34.595Z,7.30
2023-01-19T07:57:07.822Z,7.10
2023-01-19T07:59:38.051Z,7.30
2023-01-19T08:02:12.003Z,7.30
2023-01-19T08:07:11.899Z,6.90
2023-01-19T08:09:51.968Z,7.00
2023-01-19T08:12:27.085Z,7.10
2023-01-19T08:15:03.036Z,6.90
2023-01-19T08:17:38.277Z,6.90
2023-01-19T08:20:16.211Z,7.10
2023-01-19T08:22:59.453Z,6.80
2023-01-19T08:25:34.591Z,6.70
2023-01-19T08:28:06.632Z,6.60
2023-01-19T08:30:40.486Z,7.10
2023-01-19T08:33:17.684Z,6.70
2023-01-19T08:35:51.211Z,6.60
2023-01-19T08:38:25.584Z,7.00
2023-01-19T08:41:03.121Z,6.80
2023-01-19T08:43:35.903Z,6.70
2023-01-19T08:46:10.595Z,6.90
2023-01-19T08:48:44.807Z,6.80
2023-01-19T08:51:18.352Z,6.70
2023-01-19T08:53:50.445Z,6.40
2023-01-19T08:56:28.217Z,7.00
2023-01-19T08:59:12.988Z,6.80
2023-01-19T09:01:49.672Z,6.60
2023-01-19T09:04:19.826Z,6.70
2023-01-19T09:06:49.453Z,6.80
2023-01-19T09:09:24.324Z,6.20
2023-01-19T09:11:56.323Z,6.40
2023-01-19T09:16:58.626Z,6.20
2023-01-19T09:19:30.608Z,6.30
2023-01-19T09:22:00.879Z,6.20
2023-01-19T09:24:30.969Z,6.10
2023-01-19T09:27:06.038Z,5.90
2023-01-19T09:29:39.381Z,6.00
2023-01-19T09:32:11.518Z,6.20
2023-01-19T09:34:46.433Z,5.90
2023-01-19T09:37:22.595Z,6.10
2023-01-19T09:39:55.483Z,6.20
2023-01-19T09:42:37.577Z,6.10
2023-01-19T09:45:15.874Z,6.00
2023-01-19T09:47:50.214Z,7.10
2023-01-19T09:50:28.978Z,6.90
2023-01-19T09:53:14.095Z,6.20
2023-01-19T09:55:46.844Z,6.70
2023-01-19T09:58:21.149Z,6.90
2023-01-19T10:01:03.618Z,6.40
2023-01-19T10:03:43.315Z,6.30
2023-01-19T10:06:22.533Z,6.70
2023-01-19T10:09:04.583Z,6.90
2023-01-19T10:11:52.596Z,7.10
2023-01-19T10:14:35.182Z,6.50
2023-01-19T10:17:19.586Z,7.10
2023-01-19T10:19:59.441Z,6.30
2023-01-19T10:22:34.324Z,6.30
2023-01-19T10:25:20.883Z,6.00
2023-01-19T10:27:52.818Z,5.50
2023-01-19T10:30:27.993Z,6.00
2023-01-19T10:32:59.210Z,6.00
2023-01-19T10:35:31.880Z,6.00
2023-01-19T10:38:09.474Z,6.20
2023-01-19T10:40:51.001Z,5.90
2023-01-19T10:43:40.944Z,5.60
2023-01-19T10:46:25.251Z,6.10
2023-01-19T10:48:56.400Z,6.20
2023-01-19T10:51:27.010Z,5.70
2023-01-19T10:54:00.953Z,6.70
2023-01-19T10:56:38.320Z,5.80
2023-01-19T10:59:33.652Z,6.00
2023-01-19T11:02:19.691Z,6.00
2023-01-19T11:04:52.536Z,5.80
2023-01-19T11:07:28.697Z,5.60
2023-01-19T11:10:23.789Z,5.70
2023-01-19T11:13:03.794Z,6.30
2023-01-19T11:15:42.973Z,6.00
2023-01-19T11:18:29.840Z,5.90
2023-01-19T11:21:03.064Z,5.90
2023-01-19T11:23:50.504Z,5.80
2023-01-19T11:26:30.940Z,5.80
2023-01-19T11:29:05.756Z,6.20
2023-01-19T11:31:46.660Z,6.10
2023-01-19T11:34:36.467Z,5.80
2023-01-19T11:37:29.522Z,6.10
2023-01-19T11:40:14.271Z,5.90
2023-01-19T11:42:47.668Z,6.20
2023-01-19T11:45:20.454Z,6.00
2023-01-19T11:47:52.061Z,6.10
2023-01-19T11:53:00.427Z,5.80
2023-01-19T11:55:40.553Z,6.30
2023-01-19T11:58:17.532Z,6.20
2023-01-19T12:00:57.292Z,6.00
2023-01-19T12:03:35.068Z,5.90
2023-01-19T12:06:18.799Z,6.20
2023-01-19T12:08:59.883Z,6.30
2023-01-19T12:11:44.995Z,6.30
2023-01-19T12:14:27.219Z,6.40
2023-01-19T12:17:07.726Z,6.20
2023-01-19T12:19:54.562Z,6.10
2023-01-19T12:22:30.006Z,6.20
2023-01-19T12:25:05.972Z,6.20
2023-01-19T12:27:41.558Z,6.00
2023-01-19T12:30:20.124Z,6.20
2023-01-19T12:32:51.156Z,6.60
2023-01-19T12:36:05.145Z,6.20
2023-01-19T12:38:46.961Z,6.60
2023-01-19T12:41:31.741Z,5.90
2023-01-19T12:44:30.264Z,6.20
2023-01-19T12:47:19.677Z,6.30
2023-01-19T12:49:55.630Z,6.20
2023-01-19T12:52:34.580Z,6.40
2023-01-19T12:55:32.823Z,6.50
2023-01-19T12:58:07.928Z,6.10
2023-01-19T13:00:42.195Z,6.60
2023-01-19T13:04:01.362Z,6.40
2023-01-19T13:07:18.828Z,6.60
2023-01-19T13:09:55.991Z,6.50
2023-01-19T13:12:36.670Z,6.90
2023-01-19T13:15:46.469Z,6.70
2023-01-19T13:18:21.179Z,7.00
2023-01-19T13:20:59.923Z,6.70
2023-01-19T13:23:55.307Z,6.50
2023-01-19T13:26:32.128Z,6.50
2023-01-19T13:29:16.427Z,6.80
2023-01-19T13:31:55.673Z,6.70
2023-01-19T13:34:36.454Z,6.40
2023-01-19T13:37:19.445Z,6.50
2023-01-19T13:39:59.738Z,6.50
2023-01-19T13:42:40.875Z,6.70
2023-01-19T13:45:26.554Z,6.50
2023-01-19T13:48:05.382Z,6.80
2023-01-19T13:50:38.915Z,6.40
2023-01-19T13:53:19.991Z,6.90
2023-01-19T13:56:08.339Z,7.00
2023-01-19T13:58:41.710Z,6.90
2023-01-19T14:01:29.273Z,6.40
2023-01-19T14:04:00.512Z,6.90
2023-01-19T14:06:40.252Z,7.10
2023-01-19T14:09:17.541Z,6.90
2023-01-19T14:12:06.446Z,6.80
2023-01-19T14:14:37.184Z,7.10
2023-01-19T14:17:24.904Z,6.60
2023-01-19T14:20:01.318Z,7.10
2023-01-19T14:22:43.369Z,7.10
2023-01-19T14:25:32.217Z,7.10
2023-01-19T14:28:34.883Z,6.90
2023-01-19T14:31:20.079Z,6.80
2023-01-19T14:33:52.915Z,6.90
2023-01-19T14:36:33.501Z,7.50
2023-01-19T14:39:22.684Z,6.80
2023-01-19T14:42:05.896Z,6.70
2023-01-19T14:44:43.084Z,6.90
2023-01-19T14:47:31.221Z,6.90
2023-01-19T14:50:07.259Z,6.80
2023-01-19T14:52:41.274Z,6.80
2023-01-19T14:55:21.948Z,7.20
2023-01-19T14:57:52.676Z,6.40
2023-01-19T15:00:27.152Z,7.00
2023-01-19T15:02:59.633Z,7.10
2023-01-19T15:05:29.902Z,6.90
2023-01-19T15:08:06.315Z,7.10
2023-01-19T15:10:37.118Z,7.10
2023-01-19T15:13:09.229Z,7.10
2023-01-19T15:15:45.549Z,7.40
2023-01-19T15:18:25.285Z,7.30
2023-01-19T15:21:02.060Z,6.90
2023-01-19T15:23:32.644Z,7.40
2023-01-19T15:26:06.645Z,7.50
2023-01-19T15:28:41.196Z,7.20
2023-01-19T15:31:15.597Z,7.20
2023-01-19T15:33:45.815Z,7.30
2023-01-19T15:36:47.468Z,7.30
2023-01-19T15:39:17.218Z,7.20
2023-01-19T15:41:46.824Z,7.30
2023-01-19T15:44:24.467Z,7.60
2023-01-19T15:47:03.172Z,7.40
2023-01-19T15:49:35.748Z,7.60
2023-01-19T15:52:07.823Z,7.80
2023-01-19T15:54:40.246Z,7.40
2023-01-19T15:57:12.216Z,7.50
2023-01-19T15:59:48.532Z,7.10
2023-01-19T16:02:18.950Z,7.50
2023-01-19T16:04:50.684Z,7.10
2023-01-19T16:07:26.608Z,7.60
2023-01-19T16:09:56.396Z,7.10
2023-01-19T16:12:26.276Z,7.50
2023-01-19T16:14:55.894Z,7.60
2023-01-19T16:17:30.604Z,7.10
2023-01-19T16:20:00.281Z,7.50
2023-01-19T16:22:29.634Z,7.40
2023-01-19T16:24:59.010Z,7.60
2023-01-19T16:27:29.515Z,7.40
2023-01-19T16:30:04.623Z,7.70
2023-01-19T16:32:35.867Z,7.20
2023-01-19T16:35:08.277Z,7.00
2023-01-19T16:37:38.167Z,7.20
2023-01-19T16:40:13.246Z,7.00
2023-01-19T16:42:43.055Z,7.40
2023-01-19T16:45:12.986Z,7.70
2023-01-19T16:47:44.767Z,7.20
2023-01-19T16:52:49.921Z,7.00
2023-01-19T16:55:25.188Z,7.10
2023-01-19T16:58:03.550Z,7.50
2023-01-19T17:00:38.247Z,7.30
2023-01-19T17:03:07.976Z,8.00
2023-01-19T17:05:37.415Z,7.50
2023-01-19T17:08:08.146Z,7.50
2023-01-19T17:10:39.519Z,7.00
2023-01-19T17:13:08.922Z,7.50
2023-01-19T17:15:38.985Z,7.20
2023-01-19T17:18:09.417Z,7.60
2023-01-19T17:20:39.138Z,7.80
2023-01-19T17:23:08.930Z,7.40
2023-01-19T17:25:38.419Z,7.80
2023-01-19T17:28:10.118Z,7.50
2023-01-19T17:30:39.771Z,7.70
2023-01-19T17:33:16.303Z,7.40
2023-01-19T17:35:46.935Z,7.20
2023-01-19T17:38:17.499Z,7.70
2023-01-19T17:40:49.345Z,7.50
2023-01-19T17:45:55.938Z,7.50
2023-01-19T17:48:25.807Z,7.70
2023-01-19T17:50:55.969Z,8.10
2023-01-19T17:53:34.574Z,7.60
2023-01-19T17:56:10.032Z,8.70
2023-01-19T17:58:40.327Z,8.20
2023-01-19T18:01:11.817Z,8.80
2023-01-19T18:06:10.781Z,9.00
2023-01-19T18:08:42.098Z,9.50
2023-01-19T18:11:18.621Z,9.40
2023-01-19T18:13:49.890Z,9.20
2023-01-19T18:16:23.041Z,9.60
2023-01-19T18:18:53.724Z,9.00
2023-01-19T18:21:26.637Z,9.40
2023-01-19T18:24:01.766Z,9.20
2023-01-19T18:26:33.374Z,9.40
2023-01-19T18:29:03.395Z,9.40
2023-01-19T18:31:33.309Z,9.90
2023-01-19T18:34:03.191Z,9.70
2023-01-19T18:36:33.528Z,9.80
2023-01-19T18:39:08.953Z,9.90
2023-01-19T18:41:41.543Z,9.40
2023-01-19T18:44:13.797Z,9.90
2023-01-19T18:46:45.994Z,10.20
2023-01-19T18:49:18.451Z,10.00
2023-01-19T18:51:48.347Z,9.50
2023-01-19T18:54:18.565Z,9.70
2023-01-19T18:56:50.259Z,10.20
2023-01-19T18:59:19.722Z,9.70
2023-01-19T19:01:49.561Z,10.20
2023-01-19T19:04:21.855Z,10.10
2023-01-19T19:06:51.670Z,10.00
2023-01-19T19:09:24.406Z,9.40
2023-01-19T19:11:54.843Z,10.20
2023-01-19T19:14:25.482Z,10.10
2023-01-19T19:16:58.824Z,10.30
2023-01-19T19:19:28.506Z,9.60
2023-01-19T19:21:57.894Z,10.10
2023-01-19T19:24:30.499Z,10.70
2023-01-19T19:27:02.614Z,10.10
2023-01-19T19:29:37.460Z,10.10
2023-01-19T19:32:10.331Z,10.20
2023-01-19T19:34:40.277Z,9.70
2023-01-19T19:37:09.917Z,9.70
2023-01-19T19:39:39.590Z,10.30
2023-01-19T19:42:09.500Z,10.00
2023-01-19T19:44:38.906Z,10.20
2023-01-19T19:47:08.520Z,9.80
2023-01-19T19:49:40.671Z,9.80
2023-01-19T19:52:10.586Z,9.60
2023-01-19T19:54:40.668Z,9.70
2023-01-19T19:57:10.043Z,9.80
2023-01-19T19:59:40.030Z,9.60
2023-01-19T20:02:12.474Z,9.90
2023-01-19T20:04:42.411Z,10.10
2023-01-19T20:07:12.349Z,9.40
2023-01-19T20:09:42.532Z,9.70
2023-01-19T20:12:12.194Z,10.30
2023-01-19T20:14:46.866Z,9.70
2023-01-19T20:17:20.164Z,10.00
2023-01-19T20:19:49.631Z,9.80
2023-01-19T20:22:19.374Z,10.10
2023-01-19T20:24:50.749Z,10.00
2023-01-19T20:27:20.479Z,9.70
2023-01-19T20:29:57.329Z,9.80
2023-01-19T20:32:27.175Z,10.10
2023-01-19T20:34:58.957Z,10.30
2023-01-19T20:39:59.153Z,10.00
2023-01-19T20:44:57.990Z,10.20
2023-01-19T20:47:29.592Z,10.20
2023-01-19T20:50:01.747Z,10.20
2023-01-19T20:52:31.858Z,10.30
2023-01-19T20:55:01.357Z,9.50
2023-01-19T21:00:03.761Z,9.50
2023-01-19T21:02:35.755Z,9.40
2023-01-19T21:05:08.221Z,9.80
2023-01-19T21:07:40.470Z,9.90
2023-01-19T21:10:15.588Z,10.20
2023-01-19T21:12:45.217Z,9.70
2023-01-19T21:15:15.761Z,9.90
2023-01-19T21:17:49.291Z,9.90
2023-01-19T21:20:19.919Z,9.40
2023-01-19T21:22:49.377Z,9.60
2023-01-19T21:25:19.220Z,9.20
2023-01-19T21:27:48.599Z,9.60
2023-01-19T21:30:21.919Z,9.50
2023-01-19T21:32:51.534Z,9.10
2023-01-19T21:35:23.072Z,9.70
2023-01-19T21:37:52.725Z,9.70
2023-01-19T21:40:26.893Z,9.90
2023-01-19T21:42:56.276Z,9.30
2023-01-19T21:45:26.068Z,9.80
2023-01-19T21:47:56.885Z,9.50
2023-01-19T21:50:26.905Z,10.00
2023-01-19T21:52:57.381Z,9.30
2023-01-19T21:55:29.960Z,9.40
2023-01-19T21:58:04.160Z,9.30
2023-01-19T22:00:38.021Z,9.50
2023-01-19T22:03:10.137Z,9.10
2023-01-19T22:05:39.532Z,9.60
2023-01-19T22:08:09.338Z,9.30
2023-01-19T22:10:38.972Z,9.20
2023-01-19T22:13:08.908Z,8.90
2023-01-19T22:15:38.535Z,9.20
2023-01-19T22:18:10.281Z,9.50
2023-01-19T22:20:42.134Z,9.20
2023-01-19T22:23:11.847Z,9.40
2023-01-19T22:25:43.932Z,9.00
2023-01-19T22:28:16.377Z,9.30
2023-01-19T22:30:46.393Z,9.00
2023-01-19T22:33:16.425Z,9.40
2023-01-19T22:35:48.096Z,9.20
2023-01-19T22:40:51.856Z,9.70
2023-01-19T22:43:21.334Z,9.10
2023-01-19T22:45:51.101Z,9.20
2023-01-19T22:48:21.882Z,8.90
2023-01-19T22:50:57.450Z,9.40
2023-01-19T22:53:27.204Z,9.20
2023-01-19T22:55:59.298Z,9.10
2023-01-19T22:58:31.704Z,9.20
2023-01-19T23:01:07.863Z,9.60
2023-01-19T23:03:43.007Z,9.60
2023-01-19T23:06:18.021Z,8.50
2023-01-19T23:08:57.708Z,9.20
2023-01-19T23:11:30.477Z,9.10
2023-01-19T23:14:06.711Z,9.50
2023-01-19T23:16:42.162Z,9.10
2023-01-19T23:19:16.835Z,9.60
2023-01-19T23:21:52.337Z,9.90
2023-01-19T23:24:23.381Z,9.50
2023-01-19T23:27:02.202Z,9.70
2023-01-19T23:29:35.909Z,9.80
2023-01-19T23:32:15.445Z,10.00
2023-01-19T23:34:48.753Z,9.60
2023-01-19T23:37:24.291Z,9.80
2023-01-19T23:39:57.327Z,9.80
2023-01-19T23:42:36.057Z,10.10
2023-01-19T23:45:10.060Z,9.70
2023-01-19T23:47:43.365Z,9.60
2023-01-19T23:50:14.247Z,10.20
2023-01-19T23:52:50.513Z,9.50
2023-01-19T23:55:20.358Z,9.60
2023-01-19T23:57:53.014Z,9.90
